createdAt,value
2022-10-03T00:02:01.054Z,0.63
2022-10-03T00:04:27.487Z,0.75
2022-10-03T00:06:53.809Z,0.58
2022-10-03T00:09:20.184Z,0.51
2022-10-03T00:11:46.539Z,0.60
2022-10-03T00:14:12.874Z,0.56
2022-10-03T00:16:39.272Z,0.60
2022-10-03T00:19:05.612Z,0.62
2022-10-03T00:21:31.952Z,0.50
2022-10-03T00:23:58.336Z,0.50
2022-10-03T00:26:24.668Z,0.48
2022-10-03T00:28:51.032Z,0.53
2022-10-03T00:31:17.484Z,0.41
2022-10-03T00:33:43.884Z,0.60
2022-10-03T00:36:10.238Z,0.56
2022-10-03T00:38:36.637Z,0.50
2022-10-03T00:41:02.995Z,0.51
2022-10-03T00:43:29.336Z,0.56
2022-10-03T00:45:55.792Z,0.60
2022-10-03T00:48:22.163Z,0.61
2022-10-03T00:50:48.508Z,0.51
2022-10-03T00:53:14.960Z,0.55
2022-10-03T00:55:41.350Z,0.56
2022-10-03T00:58:07.718Z,0.74
2022-10-03T01:00:34.207Z,0.60
2022-10-03T01:03:00.588Z,0.65
2022-10-03T01:05:26.992Z,0.54
2022-10-03T01:07:53.359Z,0.44
2022-10-03T01:10:19.706Z,0.57
2022-10-03T01:12:46.047Z,0.51
2022-10-03T01:15:12.531Z,0.58
2022-10-03T01:17:38.853Z,0.42
2022-10-03T01:20:05.196Z,0.52
2022-10-03T01:22:31.580Z,0.51
2022-10-03T01:24:57.924Z,0.54
2022-10-03T01:27:24.285Z,0.53
2022-10-03T01:29:50.652Z,0.41
2022-10-03T01:32:17.001Z,0.48
2022-10-03T01:34:43.397Z,0.51
2022-10-03T01:37:09.888Z,0.59
2022-10-03T01:39:39.027Z,0.43
2022-10-03T01:42:05.382Z,0.56
2022-10-03T01:44:31.726Z,0.43
2022-10-03T01:46:58.145Z,0.55
2022-10-03T01:49:24.590Z,0.53
2022-10-03T01:51:50.960Z,0.50
2022-10-03T01:54:17.319Z,0.46
2022-10-03T01:56:43.643Z,0.53
2022-10-03T01:59:17.157Z,0.38
2022-10-03T02:01:43.558Z,0.46
2022-10-03T02:04:10.038Z,0.51
2022-10-03T02:06:36.437Z,0.46
2022-10-03T02:09:02.813Z,0.47
2022-10-03T02:11:29.313Z,0.48
2022-10-03T02:13:55.655Z,0.57
2022-10-03T02:16:22.079Z,0.47
2022-10-03T02:18:48.578Z,0.44
2022-10-03T02:21:14.911Z,0.52
2022-10-03T02:23:41.257Z,0.54
2022-10-03T02:26:07.634Z,0.41
2022-10-03T02:28:33.998Z,0.45
2022-10-03T02:31:00.329Z,0.55
2022-10-03T02:33:26.711Z,0.50
2022-10-03T02:35:53.046Z,0.42
2022-10-03T02:38:19.434Z,0.42
2022-10-03T02:40:45.815Z,0.56
2022-10-03T02:43:12.170Z,0.58
2022-10-03T02:45:38.605Z,0.60
2022-10-03T02:48:30.073Z,0.43
2022-10-03T02:50:51.376Z,0.55
2022-10-03T02:53:17.757Z,0.54
2022-10-03T02:55:44.082Z,0.51
2022-10-03T02:58:10.446Z,0.50
2022-10-03T03:00:36.944Z,0.43
2022-10-03T03:03:03.292Z,0.38
2022-10-03T03:05:29.637Z,0.41
2022-10-03T03:07:56.098Z,0.53
2022-10-03T03:10:22.435Z,0.47
2022-10-03T03:12:48.780Z,0.57
2022-10-03T03:15:15.149Z,0.41
2022-10-03T03:17:41.484Z,0.45
2022-10-03T03:20:07.878Z,0.44
2022-10-03T03:22:34.343Z,0.52
2022-10-03T03:25:00.750Z,0.52
2022-10-03T03:27:27.107Z,0.47
2022-10-03T03:29:53.500Z,0.49
2022-10-03T03:32:19.852Z,0.43
2022-10-03T03:34:46.209Z,0.51
2022-10-03T03:37:12.698Z,0.42
2022-10-03T03:39:39.036Z,0.47
2022-10-03T03:42:05.422Z,0.49
2022-10-03T03:44:31.826Z,0.43
2022-10-03T03:46:58.170Z,0.51
2022-10-03T03:49:24.515Z,0.45
2022-10-03T03:51:50.953Z,0.46
2022-10-03T03:54:17.292Z,0.52
2022-10-03T03:56:43.633Z,0.47
2022-10-03T03:59:10.030Z,0.58
2022-10-03T04:01:36.472Z,0.44
2022-10-03T04:04:02.879Z,0.59
2022-10-03T04:06:29.281Z,0.60
2022-10-03T04:08:55.641Z,0.53
2022-10-03T04:11:21.981Z,0.55
2022-10-03T04:13:48.362Z,0.49
2022-10-03T04:16:14.829Z,0.63
2022-10-03T04:18:41.225Z,0.63
2022-10-03T04:21:07.724Z,0.62
2022-10-03T04:23:34.108Z,0.45
2022-10-03T04:26:00.445Z,0.51
2022-10-03T04:28:26.998Z,0.54
2022-10-03T04:30:53.427Z,0.55
2022-10-03T04:33:19.782Z,0.55
2022-10-03T04:35:46.157Z,0.54
2022-10-03T04:38:12.509Z,0.55
2022-10-03T04:40:38.896Z,0.43
2022-10-03T04:43:05.285Z,0.57
2022-10-03T04:45:31.706Z,0.49
2022-10-03T04:47:58.096Z,0.56
2022-10-03T04:50:24.499Z,0.44
2022-10-03T04:52:50.903Z,0.49
2022-10-03T04:55:17.244Z,0.50
2022-10-03T04:57:43.640Z,0.55
2022-10-03T05:00:09.986Z,0.45
2022-10-03T05:02:36.381Z,0.54
2022-10-03T05:05:02.753Z,0.56
2022-10-03T05:07:29.080Z,0.62
2022-10-03T05:09:55.439Z,0.59
2022-10-03T05:12:21.808Z,0.74
2022-10-03T05:14:48.163Z,0.86
2022-10-03T05:17:14.510Z,0.91
2022-10-03T05:19:43.216Z,0.84
2022-10-03T05:22:09.577Z,0.94
2022-10-03T05:24:35.946Z,0.83
2022-10-03T05:27:02.474Z,0.73
2022-10-03T05:29:28.856Z,0.93
2022-10-03T05:31:55.216Z,0.81
2022-10-03T05:34:21.709Z,0.87
2022-10-03T05:36:48.035Z,0.88
2022-10-03T05:39:14.459Z,0.98
2022-10-03T05:41:41.093Z,0.82
2022-10-03T05:44:07.697Z,0.79
2022-10-03T05:46:34.034Z,1.02
2022-10-03T05:49:00.397Z,0.88
2022-10-03T05:51:26.776Z,1.07
2022-10-03T05:53:53.125Z,1.01
2022-10-03T05:56:19.524Z,0.95
2022-10-03T05:58:45.885Z,0.83
2022-10-03T06:01:12.289Z,0.88
2022-10-03T06:03:38.737Z,0.89
2022-10-03T06:06:05.120Z,0.75
2022-10-03T06:08:31.557Z,0.83
2022-10-03T06:10:58.103Z,0.87
2022-10-03T06:13:24.435Z,0.79
2022-10-03T06:15:50.816Z,0.79
2022-10-03T06:18:17.317Z,0.91
2022-10-03T06:20:43.648Z,0.75
2022-10-03T06:23:09.991Z,0.84
2022-10-03T06:25:36.363Z,0.78
2022-10-03T06:28:02.830Z,0.75
2022-10-03T06:30:29.281Z,0.76
2022-10-03T06:32:55.780Z,0.74
2022-10-03T06:35:22.154Z,0.83
2022-10-03T06:37:48.486Z,0.84
2022-10-03T06:40:14.848Z,0.82
2022-10-03T06:42:41.191Z,0.83
2022-10-03T06:45:07.594Z,1.02
2022-10-03T06:47:34.048Z,1.03
2022-10-03T06:50:00.434Z,0.87
2022-10-03T06:52:26.769Z,0.97
2022-10-03T06:54:53.148Z,1.14
2022-10-03T06:57:19.478Z,1.14
2022-10-03T06:59:47.387Z,1.21
2022-10-03T07:02:13.895Z,1.10
2022-10-03T07:04:40.266Z,1.04
2022-10-03T07:07:06.610Z,1.18
2022-10-03T07:09:40.257Z,1.07
2022-10-03T07:12:10.812Z,1.12
2022-10-03T07:14:40.001Z,1.22
2022-10-03T07:17:06.424Z,1.22
2022-10-03T07:19:40.064Z,1.05
2022-10-03T07:22:06.459Z,0.99
2022-10-03T07:24:32.894Z,0.97
2022-10-03T07:26:59.234Z,0.91
2022-10-03T07:29:25.794Z,0.90
2022-10-03T07:31:52.158Z,0.88
2022-10-03T07:34:18.554Z,1.08
2022-10-03T07:36:45.055Z,1.05
2022-10-03T07:39:11.464Z,1.13
2022-10-03T07:41:37.973Z,0.85
2022-10-03T07:44:04.825Z,0.99
2022-10-03T07:46:31.223Z,1.14
2022-10-03T07:48:57.591Z,0.95
2022-10-03T07:51:23.980Z,0.95
2022-10-03T07:53:50.338Z,1.00
2022-10-03T07:56:16.697Z,0.97
2022-10-03T07:58:43.186Z,0.89
2022-10-03T08:01:09.642Z,1.02
2022-10-03T08:03:36.089Z,1.24
2022-10-03T08:06:02.537Z,1.09
2022-10-03T08:08:29.002Z,0.99
2022-10-03T08:10:55.351Z,1.26
2022-10-03T08:13:21.717Z,1.16
2022-10-03T08:15:48.167Z,0.83
2022-10-03T08:18:14.543Z,0.62
2022-10-03T08:20:40.963Z,0.79
2022-10-03T08:23:07.337Z,0.92
2022-10-03T08:25:33.684Z,0.77
2022-10-03T08:28:00.244Z,0.83
2022-10-03T08:30:26.668Z,0.77
2022-10-03T08:32:53.005Z,0.72
2022-10-03T08:35:19.503Z,0.71
2022-10-03T08:37:45.846Z,0.76
2022-10-03T08:40:12.221Z,0.69
2022-10-03T08:42:38.750Z,0.73
2022-10-03T08:45:05.113Z,1.01
2022-10-03T08:47:31.496Z,0.76
2022-10-03T08:50:00.708Z,0.69
2022-10-03T08:52:30.858Z,0.73
2022-10-03T08:54:57.422Z,0.93
2022-10-03T08:57:23.765Z,0.79
2022-10-03T08:59:50.113Z,0.72
2022-10-03T09:02:16.665Z,0.58
2022-10-03T09:04:43.148Z,0.70
2022-10-03T09:07:18.256Z,0.51
2022-10-03T09:09:45.465Z,0.57
2022-10-03T09:12:11.865Z,0.52
2022-10-03T09:14:38.222Z,0.71
2022-10-03T09:17:04.638Z,0.55
2022-10-03T09:19:30.973Z,0.54
2022-10-03T09:21:57.317Z,0.58
2022-10-03T09:24:23.688Z,0.56
2022-10-03T09:26:50.055Z,0.55
2022-10-03T09:29:16.490Z,0.56
2022-10-03T09:31:43.310Z,0.55
2022-10-03T09:34:10.114Z,0.65
2022-10-03T09:36:36.530Z,0.69
2022-10-03T09:39:03.007Z,0.58
2022-10-03T09:41:29.356Z,0.77
2022-10-03T09:43:55.734Z,0.55
2022-10-03T09:46:22.166Z,0.72
2022-10-03T09:48:48.686Z,0.80
2022-10-03T09:51:15.062Z,0.74
2022-10-03T09:53:41.564Z,0.64
2022-10-03T09:56:07.957Z,0.70
2022-10-03T09:58:34.317Z,0.50
2022-10-03T10:01:00.893Z,0.52
2022-10-03T10:03:27.325Z,0.53
2022-10-03T10:05:53.689Z,0.53
2022-10-03T10:08:20.230Z,0.74
2022-10-03T10:10:46.582Z,1.13
2022-10-03T10:13:12.920Z,0.89
2022-10-03T10:15:39.453Z,0.81
2022-10-03T10:18:05.811Z,0.67
2022-10-03T10:20:32.172Z,0.63
2022-10-03T10:22:58.576Z,0.61
2022-10-03T10:25:25.004Z,0.94
2022-10-03T10:27:51.451Z,0.79
2022-10-03T10:30:17.877Z,0.81
2022-10-03T10:32:44.386Z,0.77
2022-10-03T10:35:10.878Z,0.72
2022-10-03T10:37:37.366Z,0.74
2022-10-03T10:40:03.803Z,0.62
2022-10-03T10:42:30.186Z,0.72
2022-10-03T10:44:56.634Z,0.71
2022-10-03T10:47:22.990Z,0.59
2022-10-03T10:49:49.506Z,0.56
2022-10-03T10:52:15.890Z,0.57
2022-10-03T10:54:42.238Z,0.53
2022-10-03T10:57:08.592Z,0.54
2022-10-03T10:59:35.000Z,0.62
2022-10-03T11:02:01.331Z,0.55
2022-10-03T11:04:27.814Z,0.51
2022-10-03T11:06:54.263Z,0.55
2022-10-03T11:09:20.626Z,0.74
2022-10-03T11:11:47.000Z,0.65
2022-10-03T11:14:13.460Z,0.47
2022-10-03T11:16:40.118Z,0.52
2022-10-03T11:19:06.756Z,0.53
2022-10-03T11:21:33.124Z,0.49
2022-10-03T11:23:59.495Z,0.59
2022-10-03T11:26:25.838Z,0.50
2022-10-03T11:28:52.310Z,0.43
2022-10-03T11:31:18.771Z,0.40
2022-10-03T11:33:45.231Z,0.42
2022-10-03T11:36:11.608Z,0.41
2022-10-03T11:38:37.944Z,0.55
2022-10-03T11:41:04.293Z,0.61
2022-10-03T11:43:30.671Z,0.48
2022-10-03T11:45:57.044Z,0.57
2022-10-03T11:48:23.478Z,0.58
2022-10-03T11:50:49.861Z,0.53
2022-10-03T11:53:16.213Z,0.47
2022-10-03T11:55:42.555Z,0.36
2022-10-03T11:58:09.095Z,0.44
2022-10-03T12:00:35.449Z,0.49
2022-10-03T12:03:01.848Z,0.51
2022-10-03T12:05:28.396Z,0.64
2022-10-03T12:07:58.281Z,0.54
2022-10-03T12:10:25.081Z,0.56
2022-10-03T12:12:51.598Z,0.43
2022-10-03T12:15:17.954Z,0.44
2022-10-03T12:17:44.317Z,0.65
2022-10-03T12:20:10.840Z,0.59
2022-10-03T12:22:37.220Z,0.57
2022-10-03T12:25:03.571Z,0.66
2022-10-03T12:27:30.026Z,0.45
2022-10-03T12:29:56.404Z,0.44
2022-10-03T12:32:22.749Z,0.34
2022-10-03T12:34:49.176Z,0.41
2022-10-03T12:37:15.575Z,0.65
2022-10-03T12:39:41.917Z,0.50
2022-10-03T12:42:08.353Z,0.55
2022-10-03T12:44:34.719Z,0.47
2022-10-03T12:47:03.137Z,0.43
2022-10-03T12:49:29.824Z,0.52
2022-10-03T12:51:56.194Z,0.38
2022-10-03T12:54:26.397Z,0.56
2022-10-03T12:56:53.253Z,0.51
2022-10-03T12:59:19.668Z,0.60
2022-10-03T13:01:46.130Z,0.54
2022-10-03T13:04:12.648Z,0.63
2022-10-03T13:07:02.197Z,0.50
2022-10-03T13:09:25.410Z,0.55
2022-10-03T13:11:51.764Z,0.64
2022-10-03T13:14:18.144Z,0.58
2022-10-03T13:16:44.551Z,0.69
2022-10-03T13:19:10.993Z,0.56
2022-10-03T13:21:46.319Z,0.46
2022-10-03T13:24:13.189Z,0.50
2022-10-03T13:26:39.598Z,0.56
2022-10-03T13:29:05.999Z,0.46
2022-10-03T13:31:32.555Z,0.63
2022-10-03T13:33:59.036Z,0.53
2022-10-03T13:36:25.391Z,0.55
2022-10-03T13:38:51.906Z,0.41
2022-10-03T13:41:18.281Z,0.49
2022-10-03T13:43:44.625Z,0.41
2022-10-03T13:46:11.124Z,0.42
2022-10-03T13:48:37.602Z,0.50
2022-10-03T13:51:03.986Z,0.44
2022-10-03T13:53:30.387Z,0.43
2022-10-03T13:55:58.412Z,0.44
2022-10-03T13:58:24.953Z,0.48
2022-10-03T14:00:51.433Z,0.55
2022-10-03T14:03:17.824Z,0.65
2022-10-03T14:05:44.301Z,0.59
2022-10-03T14:08:10.736Z,0.50
2022-10-03T14:10:37.066Z,0.40
2022-10-03T14:13:03.419Z,0.64
2022-10-03T14:15:29.937Z,0.73
2022-10-03T14:17:56.355Z,0.72
2022-10-03T14:20:22.779Z,0.61
2022-10-03T14:22:49.254Z,0.50
2022-10-03T14:25:15.604Z,0.55
2022-10-03T14:27:41.957Z,0.48
2022-10-03T14:30:08.395Z,0.50
2022-10-03T14:32:47.255Z,0.50
2022-10-03T14:35:13.971Z,0.55
2022-10-03T14:37:40.307Z,0.44
2022-10-03T14:40:06.689Z,0.51
2022-10-03T14:42:33.087Z,0.47
2022-10-03T14:44:59.443Z,0.48
2022-10-03T14:47:25.804Z,0.52
2022-10-03T14:49:57.986Z,0.61
2022-10-03T14:52:25.427Z,0.58
2022-10-03T14:54:51.796Z,0.53
2022-10-03T14:57:18.282Z,0.69
2022-10-03T14:59:44.631Z,0.86
2022-10-03T15:02:11.016Z,0.79
2022-10-03T15:04:37.678Z,0.63
2022-10-03T15:07:04.084Z,0.75
2022-10-03T15:09:30.531Z,0.57
2022-10-03T15:11:56.995Z,0.57
2022-10-03T15:14:23.423Z,0.52
2022-10-03T15:16:49.877Z,0.54
2022-10-03T15:19:16.375Z,0.61
2022-10-03T15:21:43.026Z,0.56
2022-10-03T15:24:09.623Z,0.74
2022-10-03T15:26:36.002Z,0.56
2022-10-03T15:29:02.358Z,0.52
2022-10-03T15:31:28.744Z,0.52
2022-10-03T15:33:55.154Z,0.72
2022-10-03T15:36:21.549Z,0.56
2022-10-03T15:38:47.945Z,0.55
2022-10-03T15:41:14.362Z,0.57
2022-10-03T15:43:40.761Z,0.55
2022-10-03T15:46:07.122Z,0.79
2022-10-03T15:48:33.710Z,1.15
2022-10-03T15:51:00.079Z,0.85
2022-10-03T15:53:41.416Z,0.70
2022-10-03T15:56:07.826Z,0.75
2022-10-03T15:58:34.201Z,0.78
2022-10-03T16:01:00.618Z,0.79
2022-10-03T16:03:27.037Z,0.90
2022-10-03T16:05:53.387Z,0.88
2022-10-03T16:08:19.830Z,0.79
2022-10-03T16:10:46.243Z,0.84
2022-10-03T16:13:12.598Z,0.85
2022-10-03T16:15:38.950Z,0.85
2022-10-03T16:18:05.325Z,0.89
2022-10-03T16:20:31.681Z,0.72
2022-10-03T16:22:58.063Z,0.74
2022-10-03T16:25:24.450Z,0.84
2022-10-03T16:27:50.872Z,1.00
2022-10-03T16:30:17.223Z,0.91
2022-10-03T16:32:43.714Z,1.01
2022-10-03T16:35:10.113Z,1.01
2022-10-03T16:37:36.458Z,1.15
2022-10-03T16:40:03.066Z,1.12
2022-10-03T16:42:29.616Z,1.48
2022-10-03T16:44:55.982Z,1.41
2022-10-03T16:47:22.397Z,1.43
2022-10-03T16:49:48.762Z,1.19
2022-10-03T16:52:15.096Z,1.17
2022-10-03T16:54:41.478Z,1.48
2022-10-03T16:57:07.833Z,1.38
2022-10-03T16:59:34.181Z,1.59
2022-10-03T17:02:00.637Z,1.70
2022-10-03T17:04:27.079Z,1.45
2022-10-03T17:06:53.436Z,1.85
2022-10-03T17:09:19.844Z,1.90
2022-10-03T17:11:46.265Z,1.34
2022-10-03T17:14:12.612Z,1.32
2022-10-03T17:16:39.210Z,1.30
2022-10-03T17:19:05.607Z,1.35
2022-10-03T17:21:32.001Z,1.50
2022-10-03T17:23:58.374Z,1.55
2022-10-03T17:26:24.751Z,1.72
2022-10-03T17:28:51.119Z,1.58
2022-10-03T17:31:17.580Z,1.41
2022-10-03T17:33:43.975Z,1.38
2022-10-03T17:36:10.322Z,1.28
2022-10-03T17:38:49.327Z,1.47
2022-10-03T17:41:16.325Z,1.32
2022-10-03T17:43:42.825Z,1.24
2022-10-03T17:46:09.238Z,1.50
2022-10-03T17:48:35.602Z,1.41
2022-10-03T17:51:01.975Z,1.24
2022-10-03T17:53:28.317Z,1.26
2022-10-03T17:55:54.718Z,1.16
2022-10-03T17:58:21.103Z,1.27
2022-10-03T18:00:47.476Z,1.21
2022-10-03T18:03:13.872Z,1.31
2022-10-03T18:05:40.360Z,1.22
2022-10-03T18:08:06.730Z,1.22
2022-10-03T18:10:33.092Z,1.07
2022-10-03T18:12:59.480Z,1.26
2022-10-03T18:15:25.836Z,1.10
2022-10-03T18:17:52.179Z,1.06
2022-10-03T18:20:18.591Z,1.06
2022-10-03T18:22:44.932Z,1.03
2022-10-03T18:25:11.298Z,1.04
2022-10-03T18:27:37.789Z,0.91
2022-10-03T18:30:04.165Z,1.09
2022-10-03T18:32:30.495Z,1.26
2022-10-03T18:34:56.842Z,1.04
2022-10-03T18:37:23.182Z,1.04
2022-10-03T18:39:53.777Z,1.00
2022-10-03T18:42:21.034Z,1.16
2022-10-03T18:44:47.366Z,1.29
2022-10-03T18:47:13.722Z,1.27
2022-10-03T18:49:40.212Z,1.16
2022-10-03T18:52:06.545Z,1.24
2022-10-03T18:54:32.892Z,1.20
2022-10-03T18:56:59.371Z,1.17
2022-10-03T18:59:25.712Z,1.25
2022-10-03T19:01:52.180Z,1.32
2022-10-03T19:04:18.673Z,1.09
2022-10-03T19:06:45.020Z,1.14
2022-10-03T19:09:13.519Z,1.09
2022-10-03T19:11:40.163Z,1.14
2022-10-03T19:14:06.742Z,1.17
2022-10-03T19:16:33.129Z,1.04
2022-10-03T19:18:59.538Z,1.29
2022-10-03T19:21:25.928Z,1.12
2022-10-03T19:23:52.255Z,0.96
2022-10-03T19:26:18.741Z,0.94
2022-10-03T19:28:45.073Z,1.00
2022-10-03T19:31:11.432Z,0.96
2022-10-03T19:33:37.813Z,1.01
2022-10-03T19:36:04.179Z,0.93
2022-10-03T19:38:30.518Z,1.02
2022-10-03T19:40:57.019Z,1.10
2022-10-03T19:43:23.403Z,1.10
2022-10-03T19:45:49.844Z,1.09
2022-10-03T19:48:16.249Z,1.18
2022-10-03T19:50:42.609Z,1.04
2022-10-03T19:53:08.999Z,1.03
2022-10-03T19:55:35.454Z,0.97
2022-10-03T19:58:01.800Z,0.99
2022-10-03T20:00:28.154Z,1.00
2022-10-03T20:02:54.546Z,1.13
2022-10-03T20:05:20.917Z,1.13
2022-10-03T20:07:47.275Z,0.92
2022-10-03T20:10:13.679Z,0.89
2022-10-03T20:12:43.568Z,0.86
2022-10-03T20:15:10.173Z,0.97
2022-10-03T20:17:36.545Z,1.03
2022-10-03T20:20:02.902Z,0.98
2022-10-03T20:22:29.254Z,1.02
2022-10-03T20:24:55.648Z,1.07
2022-10-03T20:27:22.017Z,1.01
2022-10-03T20:29:48.374Z,1.14
2022-10-03T20:32:14.814Z,1.03
2022-10-03T20:34:41.228Z,1.01
2022-10-03T20:37:07.578Z,0.98
2022-10-03T20:39:33.954Z,0.81
2022-10-03T20:42:00.285Z,0.95
2022-10-03T20:44:26.624Z,1.00
2022-10-03T20:46:53.011Z,1.23
2022-10-03T20:49:19.379Z,0.99
2022-10-03T20:51:45.782Z,1.23
2022-10-03T20:54:12.189Z,1.07
2022-10-03T20:56:38.534Z,1.06
2022-10-03T20:59:04.880Z,1.10
2022-10-03T21:01:31.316Z,1.16
2022-10-03T21:03:57.687Z,0.97
2022-10-03T21:06:24.046Z,1.06
2022-10-03T21:08:50.520Z,0.95
2022-10-03T21:11:16.871Z,0.94
2022-10-03T21:13:43.235Z,0.89
2022-10-03T21:16:09.753Z,1.04
2022-10-03T21:18:36.169Z,1.02
2022-10-03T21:21:02.590Z,1.02
2022-10-03T21:23:29.025Z,1.11
2022-10-03T21:25:55.408Z,0.87
2022-10-03T21:28:21.768Z,0.83
2022-10-03T21:30:48.224Z,0.84
2022-10-03T21:33:14.582Z,1.01
2022-10-03T21:35:40.933Z,0.87
2022-10-03T21:38:07.316Z,0.92
2022-10-03T21:40:33.659Z,0.84
2022-10-03T21:42:59.992Z,0.87
2022-10-03T21:45:26.391Z,0.72
2022-10-03T21:47:52.721Z,0.83
2022-10-03T21:50:19.108Z,0.84
2022-10-03T21:52:45.492Z,0.83
2022-10-03T21:55:11.830Z,0.87
2022-10-03T21:57:38.164Z,0.83
2022-10-03T22:00:04.716Z,0.71
2022-10-03T22:02:31.119Z,0.79
2022-10-03T22:04:57.537Z,0.87
2022-10-03T22:07:24.016Z,0.95
2022-10-03T22:09:50.349Z,0.88
2022-10-03T22:12:16.695Z,0.73
2022-10-03T22:14:43.120Z,0.87
2022-10-03T22:17:09.451Z,0.76
2022-10-03T22:19:35.827Z,0.86
2022-10-03T22:22:02.231Z,0.79
2022-10-03T22:24:28.592Z,0.75
2022-10-03T22:26:54.980Z,0.80
2022-10-03T22:29:23.059Z,0.80
2022-10-03T22:31:49.653Z,0.87
2022-10-03T22:34:15.990Z,0.71
2022-10-03T22:36:42.381Z,0.64
2022-10-03T22:39:08.737Z,0.71
2022-10-03T22:41:35.132Z,0.77
2022-10-03T22:44:01.525Z,0.75
2022-10-03T22:46:28.013Z,0.82
2022-10-03T22:48:54.397Z,0.76
2022-10-03T22:51:20.763Z,0.72
2022-10-03T22:53:47.103Z,0.68
2022-10-03T22:56:13.480Z,0.75
2022-10-03T22:58:40.004Z,0.77
2022-10-03T23:01:06.336Z,0.80
2022-10-03T23:03:32.709Z,0.73
2022-10-03T23:05:59.211Z,0.67
2022-10-03T23:08:25.553Z,0.62
2022-10-03T23:10:51.918Z,0.64
2022-10-03T23:13:18.394Z,0.82
2022-10-03T23:15:44.782Z,0.75
2022-10-03T23:18:11.160Z,0.69
2022-10-03T23:20:37.568Z,0.71
2022-10-03T23:23:03.902Z,0.67
2022-10-03T23:25:30.236Z,0.68
2022-10-03T23:27:56.709Z,0.56
2022-10-03T23:30:23.105Z,0.69
2022-10-03T23:32:49.443Z,0.76
2022-10-03T23:35:15.915Z,0.68
2022-10-03T23:37:42.273Z,0.75
2022-10-03T23:40:08.727Z,0.69
2022-10-03T23:42:35.203Z,0.80
2022-10-03T23:45:01.543Z,0.78
2022-10-03T23:47:27.886Z,0.66
2022-10-03T23:49:54.234Z,0.70
2022-10-03T23:52:20.582Z,0.73
2022-10-03T23:54:46.948Z,0.69
2022-10-03T23:57:13.308Z,0.62
2022-10-03T23:59:39.651Z,0.61
